createdAt,value
2019-03-29T00:02:34.200Z,19.90
2019-03-29T00:05:14.805Z,21.90
2019-03-29T00:07:55.341Z,23.13
2019-03-29T00:10:35.874Z,24.03
2019-03-29T00:13:16.314Z,23.40
2019-03-29T00:15:56.771Z,24.57
2019-03-29T00:18:37.633Z,24.53
2019-03-29T00:21:18.270Z,25.37
2019-03-29T00:24:06.682Z,24.33
2019-03-29T00:26:41.624Z,24.57
2019-03-29T00:29:22.502Z,21.90
2019-03-29T00:32:03.258Z,20.77
2019-03-29T00:34:44.264Z,22.20
2019-03-29T00:37:24.714Z,20.40
2019-03-29T00:40:05.337Z,22.43
2019-03-29T00:42:46.980Z,21.70
2019-03-29T00:45:27.550Z,23.17
2019-03-29T00:48:08.344Z,23.70
2019-03-29T00:50:49.125Z,23.20
2019-03-29T00:53:29.761Z,24.03
2019-03-29T00:56:10.425Z,22.73
2019-03-29T00:58:51.116Z,23.03
2019-03-29T01:01:31.984Z,24.40
2019-03-29T01:04:12.467Z,23.73
2019-03-29T01:06:53.355Z,24.23
2019-03-29T01:09:34.398Z,24.27
2019-03-29T01:12:15.216Z,24.00
2019-03-29T01:14:56.177Z,25.10
2019-03-29T01:17:37.093Z,25.07
2019-03-29T01:20:17.899Z,24.27
2019-03-29T01:22:58.380Z,24.73
2019-03-29T01:25:39.029Z,24.87
2019-03-29T01:28:19.699Z,23.97
2019-03-29T01:31:00.595Z,23.80
2019-03-29T01:33:42.695Z,23.37
2019-03-29T01:36:23.452Z,19.87
2019-03-29T01:39:04.427Z,15.23
2019-03-29T01:41:44.759Z,10.67
2019-03-29T01:44:25.537Z,8.93
2019-03-29T01:47:06.486Z,10.20
2019-03-29T01:49:47.328Z,9.80
2019-03-29T01:52:31.330Z,11.27
2019-03-29T01:55:10.800Z,9.93
2019-03-29T01:57:51.471Z,8.23
2019-03-29T02:01:00.089Z,6.30
2019-03-29T02:03:47.890Z,8.13
2019-03-29T02:06:30.086Z,7.33
2019-03-29T02:09:10.368Z,8.30
2019-03-29T02:11:51.050Z,8.30
2019-03-29T02:14:32.075Z,8.83
2019-03-29T02:17:12.818Z,9.47
2019-03-29T02:19:53.478Z,16.00
2019-03-29T02:22:33.992Z,16.00
2019-03-29T02:25:15.983Z,16.50
2019-03-29T02:27:56.807Z,16.60
2019-03-29T02:30:37.489Z,16.57
2019-03-29T02:33:19.592Z,16.97
2019-03-29T02:36:00.994Z,16.87
2019-03-29T02:38:55.224Z,14.70
2019-03-29T02:41:24.614Z,14.23
2019-03-29T02:44:05.333Z,15.70
2019-03-29T02:46:45.913Z,17.10
2019-03-29T02:49:26.720Z,16.73
2019-03-29T02:52:07.618Z,17.43
2019-03-29T02:54:48.489Z,18.47
2019-03-29T02:57:29.224Z,17.50
2019-03-29T03:00:10.821Z,16.93
2019-03-29T03:02:51.877Z,15.63
2019-03-29T03:05:32.723Z,15.87
2019-03-29T03:08:14.138Z,18.10
2019-03-29T03:10:56.401Z,17.57
2019-03-29T03:13:37.262Z,20.43
2019-03-29T03:16:17.856Z,20.00
2019-03-29T03:18:58.903Z,20.90
2019-03-29T03:21:39.838Z,21.30
2019-03-29T03:24:20.611Z,21.10
2019-03-29T03:27:01.412Z,21.10
2019-03-29T03:29:42.131Z,19.83
2019-03-29T03:32:22.821Z,20.73
2019-03-29T03:35:03.664Z,19.03
2019-03-29T03:37:44.351Z,20.10
2019-03-29T03:40:24.943Z,20.13
2019-03-29T03:43:05.576Z,21.03
2019-03-29T03:45:46.313Z,20.93
2019-03-29T03:48:27.473Z,22.13
2019-03-29T03:51:08.292Z,21.20
2019-03-29T03:53:49.269Z,21.87
2019-03-29T03:56:30.146Z,21.47
2019-03-29T03:59:10.553Z,21.57
2019-03-29T04:01:51.172Z,19.20
2019-03-29T04:04:31.703Z,20.13
2019-03-29T04:07:12.215Z,20.50
2019-03-29T04:09:52.855Z,21.67
2019-03-29T04:12:33.549Z,21.03
2019-03-29T04:15:14.358Z,22.13
2019-03-29T04:17:54.954Z,22.43
2019-03-29T04:20:37.088Z,22.03
2019-03-29T04:23:17.509Z,22.77
2019-03-29T04:25:58.281Z,23.60
2019-03-29T04:28:40.675Z,22.20
2019-03-29T04:31:21.661Z,22.03
2019-03-29T04:34:02.189Z,23.17
2019-03-29T04:36:42.731Z,23.43
2019-03-29T04:39:23.693Z,22.70
2019-03-29T04:42:04.129Z,23.00
2019-03-29T04:44:44.728Z,23.37
2019-03-29T04:47:26.179Z,23.80
2019-03-29T04:50:07.447Z,22.43
2019-03-29T04:52:49.729Z,22.03
2019-03-29T04:55:30.948Z,22.60
2019-03-29T04:58:11.446Z,24.10
2019-03-29T05:00:52.312Z,23.43
2019-03-29T05:03:33.282Z,24.80
2019-03-29T05:06:14.143Z,23.53
2019-03-29T05:08:55.053Z,24.80
2019-03-29T05:11:35.820Z,24.53
2019-03-29T05:14:16.425Z,22.23
2019-03-29T05:16:57.403Z,25.90
2019-03-29T05:19:36.105Z,25.23
2019-03-29T05:22:23.913Z,23.63
2019-03-29T05:25:05.266Z,23.93
2019-03-29T05:27:44.176Z,26.13
2019-03-29T05:30:31.987Z,23.60
2019-03-29T05:33:12.686Z,24.53
2019-03-29T05:35:53.298Z,22.90
2019-03-29T05:38:33.907Z,21.73
2019-03-29T05:41:14.660Z,21.23
2019-03-29T05:43:55.428Z,22.23
2019-03-29T05:46:36.012Z,23.77
2019-03-29T05:49:16.696Z,27.73
2019-03-29T05:51:57.353Z,25.87
2019-03-29T05:54:38.060Z,25.73
2019-03-29T05:57:18.778Z,27.30
2019-03-29T05:59:59.965Z,28.63
2019-03-29T06:02:41.031Z,28.83
2019-03-29T06:05:21.849Z,29.20
2019-03-29T06:08:02.642Z,29.83
2019-03-29T06:10:49.333Z,30.77
2019-03-29T06:13:26.149Z,29.30
2019-03-29T06:16:07.138Z,29.63
2019-03-29T06:18:47.932Z,28.37
2019-03-29T06:21:28.936Z,28.50
2019-03-29T06:24:09.696Z,28.03
2019-03-29T06:26:50.330Z,26.17
2019-03-29T06:29:18.810Z,25.53
2019-03-29T06:32:06.674Z,25.90
2019-03-29T06:34:46.944Z,27.57
2019-03-29T06:37:29.046Z,28.50
2019-03-29T06:40:09.920Z,30.20
2019-03-29T06:42:38.437Z,29.10
2019-03-29T06:45:26.298Z,30.90
2019-03-29T06:48:14.367Z,32.27
2019-03-29T06:50:53.334Z,34.27
2019-03-29T06:53:34.457Z,34.43
2019-03-29T06:56:15.944Z,34.00
2019-03-29T06:58:57.119Z,34.53
2019-03-29T07:01:38.244Z,35.47
2019-03-29T07:04:19.279Z,34.53
2019-03-29T07:07:00.110Z,36.43
2019-03-29T07:09:40.729Z,37.53
2019-03-29T07:12:21.443Z,35.27
2019-03-29T07:15:02.523Z,34.97
2019-03-29T07:17:43.200Z,37.47
2019-03-29T07:20:24.014Z,36.63
2019-03-29T07:23:04.917Z,38.60
2019-03-29T07:25:45.842Z,39.00
2019-03-29T07:28:26.825Z,40.93
2019-03-29T07:31:07.626Z,41.03
2019-03-29T07:33:48.627Z,41.70
2019-03-29T07:36:29.338Z,41.50
2019-03-29T07:39:10.201Z,43.17
2019-03-29T07:41:51.286Z,43.13
2019-03-29T07:44:32.149Z,42.23
2019-03-29T07:47:12.863Z,42.50
2019-03-29T07:49:53.853Z,43.10
2019-03-29T07:52:34.694Z,39.80
2019-03-29T07:55:15.647Z,40.87
2019-03-29T07:57:56.194Z,39.87
2019-03-29T08:00:37.293Z,40.07
2019-03-29T08:03:21.036Z,38.30
2019-03-29T08:06:00.984Z,37.10
2019-03-29T08:08:41.438Z,40.60
2019-03-29T08:11:26.299Z,39.50
2019-03-29T08:14:05.049Z,38.93
2019-03-29T08:16:45.774Z,38.77
2019-03-29T08:19:26.659Z,38.53
2019-03-29T08:22:07.239Z,38.17
2019-03-29T08:24:48.159Z,38.37
2019-03-29T08:27:29.016Z,37.20
2019-03-29T08:30:09.682Z,37.90
2019-03-29T08:32:50.602Z,34.93
2019-03-29T08:35:31.872Z,35.93
2019-03-29T08:38:12.280Z,33.67
2019-03-29T08:40:52.798Z,30.93
2019-03-29T08:43:33.381Z,32.83
2019-03-29T08:46:14.106Z,31.90
2019-03-29T08:48:54.643Z,30.57
2019-03-29T08:51:35.437Z,29.93
2019-03-29T08:54:15.913Z,29.73
2019-03-29T08:56:56.785Z,28.63
2019-03-29T08:59:37.320Z,29.53
2019-03-29T09:02:18.171Z,29.20
2019-03-29T09:04:58.637Z,31.50
2019-03-29T09:07:44.984Z,29.77
2019-03-29T09:10:22.316Z,30.10
2019-03-29T09:13:04.599Z,31.03
2019-03-29T09:15:45.311Z,33.60
2019-03-29T09:18:26.282Z,32.93
2019-03-29T09:21:06.869Z,35.33
2019-03-29T09:23:47.782Z,36.23
2019-03-29T09:26:28.605Z,36.30
2019-03-29T09:29:09.620Z,38.13
2019-03-29T09:31:50.449Z,36.53
2019-03-29T09:34:31.229Z,34.93
2019-03-29T09:37:11.806Z,35.57
2019-03-29T09:39:52.240Z,35.97
2019-03-29T09:42:32.835Z,37.53
2019-03-29T09:45:13.729Z,36.33
2019-03-29T09:47:55.906Z,38.87
2019-03-29T09:50:37.044Z,36.53
2019-03-29T09:53:17.487Z,34.50
2019-03-29T09:55:58.381Z,34.50
2019-03-29T09:58:38.952Z,30.87
2019-03-29T10:01:20.912Z,29.67
2019-03-29T10:04:01.597Z,29.33
2019-03-29T10:06:42.101Z,30.27
2019-03-29T10:09:23.231Z,27.80
2019-03-29T10:12:03.872Z,31.73
2019-03-29T10:14:44.900Z,27.80
2019-03-29T10:17:25.926Z,28.43
2019-03-29T10:20:06.981Z,27.70
2019-03-29T10:22:47.871Z,26.83
2019-03-29T10:25:28.873Z,27.20
2019-03-29T10:28:09.629Z,27.33
2019-03-29T10:30:50.582Z,26.20
2019-03-29T10:33:31.549Z,26.57
2019-03-29T10:36:12.423Z,28.50
2019-03-29T10:38:53.461Z,25.57
2019-03-29T10:41:37.775Z,26.93
2019-03-29T10:44:16.256Z,25.90
2019-03-29T10:46:56.967Z,25.97
2019-03-29T10:49:37.692Z,23.17
2019-03-29T10:52:18.492Z,24.97
2019-03-29T10:54:59.382Z,23.60
2019-03-29T10:57:40.546Z,24.13
2019-03-29T11:03:28.632Z,23.40
2019-03-29T11:06:15.647Z,21.43
2019-03-29T11:08:55.905Z,21.50
2019-03-29T11:11:36.922Z,21.63
2019-03-29T11:14:17.572Z,20.77
2019-03-29T11:16:58.314Z,21.53
2019-03-29T11:19:39.247Z,19.40
2019-03-29T11:22:20.164Z,20.90
2019-03-29T11:27:44.380Z,20.77
2019-03-29T11:30:13.082Z,21.93
2019-03-29T11:35:54.399Z,22.30
2019-03-29T11:38:35.453Z,21.60
2019-03-29T11:41:16.309Z,20.80
2019-03-29T11:43:57.479Z,21.97
2019-03-29T11:46:38.127Z,21.87
2019-03-29T11:49:19.449Z,20.90
2019-03-29T11:51:59.986Z,20.33
2019-03-29T11:54:40.643Z,20.43
2019-03-29T11:57:21.684Z,19.80
2019-03-29T12:00:02.505Z,20.03
2019-03-29T12:02:43.197Z,19.40
2019-03-29T12:05:23.996Z,20.03
2019-03-29T12:08:04.780Z,19.07
2019-03-29T12:10:46.011Z,18.83
2019-03-29T12:13:40.332Z,17.97
2019-03-29T12:16:09.597Z,17.60
2019-03-29T12:18:50.495Z,17.70
2019-03-29T12:21:38.844Z,18.73
2019-03-29T12:27:15.145Z,18.57
2019-03-29T12:29:56.174Z,16.37
2019-03-29T12:32:36.877Z,17.30
2019-03-29T12:35:17.770Z,17.33
2019-03-29T12:37:46.311Z,17.43
2019-03-29T12:40:34.209Z,17.60
2019-03-29T12:43:22.095Z,15.87
2019-03-29T12:46:03.000Z,16.73
2019-03-29T12:48:43.978Z,16.10
2019-03-29T12:51:24.843Z,17.43
2019-03-29T12:54:05.488Z,16.67
2019-03-29T12:56:46.344Z,17.97
2019-03-29T12:59:27.491Z,17.70
2019-03-29T13:02:08.092Z,18.27
2019-03-29T13:04:47.815Z,18.67
2019-03-29T13:07:28.671Z,18.93
2019-03-29T13:10:10.030Z,17.73
2019-03-29T13:12:51.964Z,17.70
2019-03-29T13:15:20.586Z,17.03
2019-03-29T13:18:08.417Z,15.43
2019-03-29T13:20:49.206Z,17.03
2019-03-29T13:23:30.159Z,16.37
2019-03-29T13:26:11.024Z,18.73
2019-03-29T13:28:51.965Z,17.33
2019-03-29T13:31:32.361Z,17.30
2019-03-29T13:34:13.065Z,19.10
2019-03-29T13:36:53.950Z,18.17
2019-03-29T13:39:34.516Z,18.00
2019-03-29T13:42:15.641Z,20.07
2019-03-29T13:44:55.974Z,19.23
2019-03-29T13:47:38.289Z,20.33
2019-03-29T13:50:19.073Z,19.17
2019-03-29T13:52:59.606Z,19.63
2019-03-29T13:55:40.293Z,18.40
2019-03-29T13:58:22.141Z,17.70
2019-03-29T14:01:02.952Z,18.90
2019-03-29T14:03:44.021Z,17.43
2019-03-29T14:06:24.398Z,19.67
2019-03-29T14:09:06.377Z,18.80
2019-03-29T14:11:34.857Z,17.90
2019-03-29T14:14:22.690Z,17.37
2019-03-29T14:17:07.623Z,17.70
2019-03-29T14:19:48.291Z,15.77
2019-03-29T14:22:28.926Z,17.50
2019-03-29T14:25:09.573Z,17.33
2019-03-29T14:27:49.996Z,16.10
2019-03-29T14:30:30.674Z,16.10
2019-03-29T14:33:11.369Z,16.07
2019-03-29T14:35:52.116Z,16.00
2019-03-29T14:38:32.516Z,16.93
2019-03-29T14:41:13.501Z,17.17
2019-03-29T14:43:54.535Z,16.83
2019-03-29T14:46:35.431Z,16.37
2019-03-29T14:49:15.967Z,16.90
2019-03-29T14:51:58.584Z,16.33
2019-03-29T14:54:39.432Z,16.80
2019-03-29T14:57:20.167Z,16.90
2019-03-29T15:00:02.881Z,16.43
2019-03-29T15:02:44.180Z,16.57
2019-03-29T15:05:24.711Z,17.70
2019-03-29T15:08:05.534Z,17.40
2019-03-29T15:10:46.376Z,17.47
2019-03-29T15:13:26.975Z,16.50
2019-03-29T15:16:07.939Z,16.67
2019-03-29T15:18:48.688Z,16.73
2019-03-29T15:21:29.709Z,16.77
2019-03-29T15:24:10.201Z,15.40
2019-03-29T15:26:50.956Z,16.57
2019-03-29T15:29:31.568Z,16.90
2019-03-29T15:32:12.504Z,15.50
2019-03-29T15:34:53.308Z,18.03
2019-03-29T15:37:34.111Z,17.93
2019-03-29T15:40:14.934Z,17.77
2019-03-29T15:42:55.962Z,18.23
2019-03-29T15:45:36.848Z,18.47
2019-03-29T15:48:17.565Z,20.07
2019-03-29T15:50:58.545Z,19.57
2019-03-29T15:53:39.849Z,19.80
2019-03-29T15:56:20.899Z,20.83
2019-03-29T15:59:02.882Z,19.00
2019-03-29T16:01:43.296Z,20.50
2019-03-29T16:04:23.965Z,19.63
2019-03-29T16:07:04.547Z,19.47
2019-03-29T16:09:45.341Z,18.60
2019-03-29T16:12:26.796Z,19.73
2019-03-29T16:15:11.193Z,19.87
2019-03-29T16:17:52.420Z,20.13
2019-03-29T16:20:20.902Z,19.43
2019-03-29T16:23:08.729Z,20.40
2019-03-29T16:25:56.574Z,16.67
2019-03-29T16:28:36.999Z,15.93
2019-03-29T16:31:17.613Z,16.77
2019-03-29T16:33:58.339Z,16.67
2019-03-29T16:36:39.317Z,15.67
2019-03-29T16:39:19.784Z,14.77
2019-03-29T16:42:00.743Z,14.40
2019-03-29T16:44:43.022Z,13.73
2019-03-29T16:47:23.381Z,14.33
2019-03-29T16:50:04.366Z,14.07
2019-03-29T16:52:44.874Z,14.40
2019-03-29T16:55:25.448Z,14.50
2019-03-29T16:58:06.062Z,14.17
2019-03-29T17:00:47.930Z,13.90
2019-03-29T17:03:29.197Z,13.83
2019-03-29T17:06:10.116Z,14.20
2019-03-29T17:08:52.948Z,14.07
2019-03-29T17:11:33.412Z,13.97
2019-03-29T17:14:14.368Z,14.47
2019-03-29T17:16:55.328Z,14.83
2019-03-29T17:19:36.292Z,13.90
2019-03-29T17:22:17.167Z,13.10
2019-03-29T17:24:58.065Z,13.17
2019-03-29T17:27:38.636Z,12.77
2019-03-29T17:30:19.898Z,12.37
2019-03-29T17:33:01.214Z,12.20
2019-03-29T17:35:41.858Z,11.07
2019-03-29T17:38:23.005Z,11.87
2019-03-29T17:41:03.985Z,11.10
2019-03-29T17:43:44.658Z,10.90
2019-03-29T17:46:25.224Z,11.40
2019-03-29T17:49:06.029Z,11.00
2019-03-29T17:51:46.881Z,10.50
2019-03-29T17:54:27.566Z,10.47
2019-03-29T17:57:08.080Z,9.97
2019-03-29T17:59:48.950Z,10.17
2019-03-29T18:02:29.447Z,10.13
2019-03-29T18:05:10.018Z,10.13
2019-03-29T18:07:50.504Z,11.17
2019-03-29T18:10:31.184Z,10.57
2019-03-29T18:13:11.641Z,10.23
2019-03-29T18:15:52.243Z,10.63
2019-03-29T18:18:33.037Z,9.87
2019-03-29T18:21:13.875Z,10.83
2019-03-29T18:23:54.547Z,11.20
2019-03-29T18:26:35.070Z,10.93
2019-03-29T18:29:15.576Z,11.10
2019-03-29T18:31:56.060Z,11.57
2019-03-29T18:34:38.116Z,12.30
2019-03-29T18:37:19.440Z,11.00
2019-03-29T18:39:59.801Z,11.67
2019-03-29T18:42:40.622Z,10.77
2019-03-29T18:45:21.750Z,11.43
2019-03-29T18:48:02.434Z,12.13
2019-03-29T18:50:43.336Z,11.40
2019-03-29T18:53:24.144Z,11.47
2019-03-29T18:56:04.732Z,11.37
2019-03-29T18:58:45.555Z,11.67
2019-03-29T19:01:26.207Z,12.23
2019-03-29T19:04:06.636Z,12.33
2019-03-29T19:06:47.235Z,11.80
2019-03-29T19:09:31.523Z,12.97
2019-03-29T19:12:11.091Z,13.63
2019-03-29T19:14:51.665Z,13.57
2019-03-29T19:17:32.483Z,13.00
2019-03-29T19:20:26.815Z,13.90
2019-03-29T19:22:56.001Z,13.10
2019-03-29T19:25:36.989Z,12.90
2019-03-29T19:28:17.406Z,13.17
2019-03-29T19:30:58.224Z,13.23
2019-03-29T19:33:39.046Z,13.57
2019-03-29T19:36:19.676Z,13.07
2019-03-29T19:39:00.141Z,12.77
2019-03-29T19:41:40.867Z,12.97
2019-03-29T19:44:21.822Z,13.57
2019-03-29T19:47:13.390Z,14.27
2019-03-29T19:49:45.702Z,15.60
2019-03-29T19:52:26.280Z,13.50
2019-03-29T19:55:07.116Z,16.30
2019-03-29T19:57:48.026Z,15.13
2019-03-29T20:00:28.633Z,15.53
2019-03-29T20:03:09.436Z,16.13
2019-03-29T20:05:50.185Z,14.50
2019-03-29T20:08:30.788Z,16.43
2019-03-29T20:11:11.830Z,16.40
2019-03-29T20:13:52.665Z,17.33
2019-03-29T20:16:34.946Z,16.73
2019-03-29T20:19:16.097Z,16.97
2019-03-29T20:21:56.807Z,17.87
2019-03-29T20:24:37.664Z,19.83
2019-03-29T20:27:18.727Z,19.40
2019-03-29T20:29:59.019Z,18.47
2019-03-29T20:32:39.807Z,17.60
2019-03-29T20:35:20.105Z,18.07
2019-03-29T20:38:00.557Z,17.93
2019-03-29T20:40:41.085Z,18.17
2019-03-29T20:43:21.647Z,18.93
2019-03-29T20:46:02.593Z,18.27
2019-03-29T20:48:43.283Z,18.10
2019-03-29T20:51:24.091Z,18.57
2019-03-29T20:54:04.576Z,19.40
2019-03-29T20:56:45.468Z,19.53
2019-03-29T20:59:26.049Z,20.20
2019-03-29T21:02:06.946Z,18.90
2019-03-29T21:04:47.777Z,19.60
2019-03-29T21:07:28.166Z,19.53
2019-03-29T21:10:09.384Z,20.40
2019-03-29T21:12:50.502Z,23.37
2019-03-29T21:15:31.330Z,22.77
2019-03-29T21:18:11.956Z,23.63
2019-03-29T21:20:52.858Z,23.03
2019-03-29T21:23:33.564Z,21.47
2019-03-29T21:26:14.551Z,21.43
2019-03-29T21:28:55.640Z,21.00
2019-03-29T21:31:36.612Z,20.13
2019-03-29T21:34:17.518Z,20.77
2019-03-29T21:36:58.214Z,20.93
2019-03-29T21:39:39.025Z,19.27
2019-03-29T21:42:19.819Z,18.17
2019-03-29T21:45:01.845Z,19.10
2019-03-29T21:47:42.359Z,18.47
2019-03-29T21:50:23.290Z,18.50
2019-03-29T21:53:04.175Z,19.33
2019-03-29T21:55:44.980Z,17.77
2019-03-29T21:58:25.530Z,18.70
2019-03-29T22:01:06.278Z,18.10
2019-03-29T22:03:47.508Z,18.60
2019-03-29T22:06:28.163Z,17.77
2019-03-29T22:09:08.816Z,17.00
2019-03-29T22:11:49.820Z,17.93
2019-03-29T22:14:30.221Z,18.97
2019-03-29T22:17:11.125Z,18.63
2019-03-29T22:19:51.873Z,19.30
2019-03-29T22:22:32.849Z,18.70
2019-03-29T22:25:13.200Z,18.33
2019-03-29T22:27:53.840Z,19.80
2019-03-29T22:30:34.474Z,18.30
2019-03-29T22:33:15.456Z,19.97
2019-03-29T22:35:56.106Z,19.20
2019-03-29T22:38:36.869Z,19.23
2019-03-29T22:41:17.483Z,19.30
2019-03-29T22:43:58.080Z,20.83
2019-03-29T22:46:38.432Z,19.53
2019-03-29T22:49:19.235Z,21.10
2019-03-29T22:52:00.288Z,20.70
2019-03-29T22:54:41.347Z,21.57
2019-03-29T22:57:21.960Z,21.37
2019-03-29T23:00:02.490Z,21.60
2019-03-29T23:02:43.071Z,21.40
2019-03-29T23:05:23.776Z,21.27
2019-03-29T23:08:04.675Z,21.90
2019-03-29T23:10:45.154Z,22.07
2019-03-29T23:13:25.728Z,23.03
2019-03-29T23:16:06.467Z,23.20
2019-03-29T23:18:47.164Z,23.87
2019-03-29T23:21:30.301Z,24.37
2019-03-29T23:24:10.817Z,24.07
2019-03-29T23:26:51.748Z,24.17
2019-03-29T23:29:32.480Z,23.57
2019-03-29T23:32:13.456Z,24.37
2019-03-29T23:34:54.294Z,23.60
2019-03-29T23:37:34.800Z,23.37
2019-03-29T23:40:15.566Z,23.60
2019-03-29T23:42:56.317Z,24.23
2019-03-29T23:45:36.928Z,22.87
2019-03-29T23:48:18.009Z,23.93
2019-03-29T23:50:58.774Z,23.73
2019-03-29T23:53:39.665Z,22.53
2019-03-29T23:56:20.692Z,25.13
2019-03-29T23:59:02.917Z,23.17
